createdAt,value
2018-11-27T05:02:18.189Z,39.33
2018-11-27T05:04:46.360Z,48.93
2018-11-27T05:07:14.544Z,54.93
2018-11-27T05:09:42.819Z,39.43
2018-11-27T05:12:10.983Z,48.77
2018-11-27T05:14:39.204Z,38.20
2018-11-27T05:17:08.209Z,38.47
2018-11-27T05:19:36.420Z,49.47
2018-11-27T05:22:04.647Z,37.87
2018-11-27T05:24:32.878Z,55.47
2018-11-27T05:27:01.101Z,38.07
2018-11-27T05:29:29.277Z,53.10
2018-11-27T05:31:57.468Z,44.00
2018-11-27T05:34:25.668Z,53.83
2018-11-27T05:36:53.846Z,41.67
2018-11-27T05:39:22.042Z,40.90
2018-11-27T05:41:50.208Z,52.27
2018-11-27T05:44:18.382Z,40.47
2018-11-27T05:46:46.624Z,50.10
2018-11-27T05:49:14.996Z,39.17
2018-11-27T05:51:43.172Z,52.13
2018-11-27T05:54:11.385Z,42.83
2018-11-27T05:56:39.611Z,51.27
2018-11-27T05:59:07.819Z,52.50
2018-11-27T06:01:36.321Z,44.90
2018-11-27T06:04:04.518Z,57.30
2018-11-27T06:06:32.704Z,46.03
2018-11-27T06:09:08.583Z,55.43
2018-11-27T06:11:36.798Z,42.37
2018-11-27T06:14:05.063Z,51.03
2018-11-27T06:16:33.320Z,43.87
2018-11-27T06:19:01.528Z,61.77
2018-11-27T06:21:29.692Z,50.87
2018-11-27T06:23:57.919Z,51.63
2018-11-27T06:26:26.118Z,43.20
2018-11-27T06:28:54.311Z,68.63
2018-11-27T06:31:22.525Z,39.03
2018-11-27T06:33:50.699Z,49.63
2018-11-27T06:36:18.884Z,42.03
2018-11-27T06:38:47.094Z,52.60
2018-11-27T06:41:15.273Z,55.27
2018-11-27T06:43:43.447Z,59.43
2018-11-27T06:46:11.643Z,54.97
2018-11-27T06:48:39.809Z,52.13
2018-11-27T06:51:08.059Z,56.73
2018-11-27T06:53:36.267Z,60.60
2018-11-27T06:56:04.426Z,43.90
2018-11-27T06:58:32.611Z,58.33
2018-11-27T07:01:00.903Z,54.33
2018-11-27T07:03:29.101Z,42.33
2018-11-27T07:05:57.275Z,56.03
2018-11-27T07:08:25.478Z,45.47
2018-11-27T07:10:53.631Z,50.67
2018-11-27T07:13:23.602Z,50.90
2018-11-27T07:15:52.153Z,41.70
2018-11-27T07:18:20.339Z,58.27
2018-11-27T07:20:48.695Z,59.17
2018-11-27T07:23:16.897Z,60.10
2018-11-27T07:25:45.050Z,59.07
2018-11-27T07:28:13.233Z,40.17
2018-11-27T07:30:42.040Z,52.13
2018-11-27T07:33:10.254Z,56.97
2018-11-27T07:35:38.415Z,55.80
2018-11-27T07:38:06.929Z,54.17
2018-11-27T07:40:35.083Z,59.73
2018-11-27T07:43:04.723Z,44.97
2018-11-27T07:45:32.911Z,56.57
2018-11-27T07:48:01.071Z,53.30
2018-11-27T07:50:29.304Z,57.20
2018-11-27T07:52:57.487Z,60.93
2018-11-27T07:55:25.659Z,47.87
2018-11-27T07:57:54.526Z,60.53
2018-11-27T08:00:24.573Z,48.50
2018-11-27T08:02:53.798Z,62.97
2018-11-27T08:05:27.410Z,59.17
2018-11-27T08:07:56.471Z,64.13
2018-11-27T08:10:28.771Z,52.03
2018-11-27T08:12:56.958Z,66.90
2018-11-27T08:15:26.303Z,54.40
2018-11-27T08:17:54.503Z,69.90
2018-11-27T08:20:26.974Z,55.17
2018-11-27T08:22:55.171Z,69.30
2018-11-27T08:25:23.352Z,52.10
2018-11-27T08:27:51.542Z,65.80
2018-11-27T08:30:20.659Z,66.43
2018-11-27T08:32:48.975Z,53.60
2018-11-27T08:35:18.427Z,63.67
2018-11-27T08:37:47.468Z,48.60
2018-11-27T08:40:16.560Z,62.63
2018-11-27T08:42:44.744Z,67.73
2018-11-27T08:45:20.815Z,46.40
2018-11-27T08:47:49.886Z,61.57
2018-11-27T08:50:19.357Z,50.43
2018-11-27T08:52:49.810Z,62.73
2018-11-27T08:55:21.567Z,47.57
2018-11-27T08:57:49.867Z,61.87
2018-11-27T09:00:19.154Z,48.27
2018-11-27T09:02:47.337Z,59.77
2018-11-27T09:05:15.576Z,50.97
2018-11-27T09:07:44.293Z,69.30
2018-11-27T09:10:16.572Z,68.90
2018-11-27T09:12:44.751Z,68.67
2018-11-27T09:15:14.754Z,54.50
2018-11-27T09:17:46.511Z,69.67
2018-11-27T09:20:14.683Z,64.67
2018-11-27T09:22:42.885Z,53.60
2018-11-27T09:25:12.900Z,70.20
2018-11-27T09:27:41.148Z,57.17
2018-11-27T09:30:19.627Z,67.33
2018-11-27T09:32:47.819Z,68.07
2018-11-27T09:35:16.005Z,69.47
2018-11-27T09:37:44.344Z,66.77
2018-11-27T09:40:14.592Z,71.57
2018-11-27T09:42:42.795Z,53.60
2018-11-27T09:45:16.518Z,70.90
2018-11-27T09:47:54.880Z,48.83
2018-11-27T09:50:27.494Z,67.43
2018-11-27T09:52:57.870Z,54.43
2018-11-27T09:55:32.015Z,70.40
2018-11-27T09:58:00.300Z,49.77
2018-11-27T10:00:30.267Z,46.33
2018-11-27T10:03:00.193Z,57.63
2018-11-27T10:05:28.714Z,47.43
2018-11-27T10:08:01.725Z,66.37
2018-11-27T10:10:29.939Z,48.07
2018-11-27T10:12:59.026Z,55.10
2018-11-27T10:15:29.514Z,43.77
2018-11-27T10:18:03.553Z,45.17
2018-11-27T10:20:34.684Z,59.83
2018-11-27T10:23:03.567Z,48.80
2018-11-27T10:25:31.787Z,45.63
2018-11-27T10:28:00.005Z,59.77
2018-11-27T10:30:28.603Z,43.87
2018-11-27T10:32:57.784Z,47.37
2018-11-27T10:35:36.095Z,56.17
2018-11-27T10:38:04.287Z,47.03
2018-11-27T10:40:32.535Z,45.17
2018-11-27T10:43:00.707Z,56.93
2018-11-27T10:45:28.949Z,46.80
2018-11-27T10:47:57.140Z,41.57
2018-11-27T10:50:25.426Z,45.17
2018-11-27T10:52:54.586Z,39.90
2018-11-27T10:55:23.380Z,38.87
2018-11-27T10:57:51.540Z,52.80
2018-11-27T11:00:29.093Z,36.13
2018-11-27T11:04:03.820Z,40.30
2018-11-27T11:06:32.765Z,40.87
2018-11-27T11:09:01.389Z,39.03
2018-11-27T11:11:29.611Z,54.10
2018-11-27T11:13:57.777Z,39.13
2018-11-27T11:16:26.024Z,42.93
2018-11-27T11:18:54.400Z,44.17
2018-11-27T11:21:22.612Z,45.07
2018-11-27T11:23:51.390Z,55.27
2018-11-27T11:26:19.563Z,42.63
2018-11-27T11:28:49.281Z,36.67
2018-11-27T11:31:17.480Z,42.27
2018-11-27T11:33:45.661Z,40.67
2018-11-27T11:36:13.875Z,39.40
2018-11-27T11:38:42.049Z,48.37
2018-11-27T11:41:10.272Z,36.43
2018-11-27T11:43:38.504Z,45.83
2018-11-27T11:46:06.760Z,35.97
2018-11-27T11:48:34.943Z,47.00
2018-11-27T11:51:03.236Z,36.60
2018-11-27T11:53:31.420Z,47.43
2018-11-27T11:55:59.765Z,38.03
2018-11-27T11:58:27.932Z,51.27
2018-11-27T12:00:56.745Z,36.20
2018-11-27T12:03:25.015Z,38.20
2018-11-27T12:05:53.244Z,36.73
2018-11-27T12:08:21.464Z,43.83
2018-11-27T12:10:49.630Z,38.43
2018-11-27T12:13:17.812Z,33.43
2018-11-27T12:15:46.005Z,38.23
2018-11-27T12:18:14.187Z,34.67
2018-11-27T12:20:42.381Z,48.87
2018-11-27T12:23:11.392Z,38.93
2018-11-27T12:25:40.646Z,49.00
2018-11-27T12:28:14.711Z,35.83
2018-11-27T12:30:38.406Z,44.37
2018-11-27T12:33:07.013Z,36.13
2018-11-27T12:35:35.300Z,34.60
2018-11-27T12:38:03.466Z,32.53
2018-11-27T12:40:31.631Z,35.83
2018-11-27T12:42:59.793Z,34.07
2018-11-27T12:45:29.623Z,33.33
2018-11-27T12:47:58.702Z,37.37
2018-11-27T12:50:39.195Z,35.23
2018-11-27T12:53:08.619Z,34.00
2018-11-27T12:55:37.984Z,43.20
2018-11-27T12:58:06.741Z,36.53
2018-11-27T13:00:35.127Z,37.37
2018-11-27T13:03:03.312Z,40.80
2018-11-27T13:05:38.768Z,39.87
2018-11-27T13:08:19.890Z,47.10
2018-11-27T13:10:48.067Z,34.70
2018-11-27T13:13:16.272Z,38.10
2018-11-27T13:15:44.885Z,40.27
2018-11-27T13:18:13.051Z,38.97
2018-11-27T13:20:41.539Z,46.63
2018-11-27T13:23:09.724Z,38.30
2018-11-27T13:25:38.372Z,48.30
2018-11-27T13:28:08.093Z,38.27
2018-11-27T13:30:40.243Z,35.97
2018-11-27T13:33:26.008Z,33.97
2018-11-27T13:35:54.229Z,43.90
2018-11-27T13:38:22.418Z,37.13
2018-11-27T13:40:50.614Z,43.77
2018-11-27T13:43:21.304Z,39.23
2018-11-27T13:45:49.496Z,46.83
2018-11-27T13:48:17.772Z,38.03
2018-11-27T13:50:45.941Z,46.80
2018-11-27T13:53:14.123Z,38.47
2018-11-27T13:55:42.297Z,43.83
2018-11-27T13:58:10.466Z,36.80
2018-11-27T14:00:38.624Z,43.40
2018-11-27T14:03:10.814Z,31.57
2018-11-27T14:05:35.109Z,46.77
2018-11-27T14:08:04.260Z,33.90
2018-11-27T14:10:32.424Z,44.57
2018-11-27T14:13:00.611Z,34.57
2018-11-27T14:15:28.870Z,46.30
2018-11-27T14:17:57.027Z,36.87
2018-11-27T14:20:25.203Z,51.30
2018-11-27T14:22:53.373Z,37.33
2018-11-27T14:25:21.552Z,48.10
2018-11-27T14:27:50.579Z,39.03
2018-11-27T14:30:21.547Z,50.90
2018-11-27T14:32:49.907Z,42.20
2018-11-27T14:35:18.774Z,55.93
2018-11-27T14:37:47.887Z,37.87
2018-11-27T14:40:18.677Z,52.63
2018-11-27T14:42:46.867Z,51.63
2018-11-27T14:45:16.019Z,38.20
2018-11-27T14:47:44.972Z,52.30
2018-11-27T14:50:13.205Z,39.57
2018-11-27T14:52:41.371Z,50.47
2018-11-27T14:55:12.376Z,39.37
2018-11-27T14:57:40.526Z,51.50
2018-11-27T15:00:11.591Z,55.03
2018-11-27T15:02:39.732Z,45.23
2018-11-27T15:05:10.256Z,50.37
2018-11-27T15:07:38.455Z,46.53
2018-11-27T15:10:08.596Z,57.47
2018-11-27T15:12:36.793Z,77.60
2018-11-27T15:15:05.600Z,51.03
2018-11-27T15:17:33.763Z,92.17
2018-11-27T15:20:01.909Z,78.60
2018-11-27T15:22:30.177Z,95.93
2018-11-27T15:24:58.462Z,74.60
2018-11-27T15:27:26.645Z,94.60
2018-11-27T15:29:54.800Z,147.23
2018-11-27T15:32:22.972Z,70.97
2018-11-27T15:34:51.106Z,43.63
2018-11-27T15:37:19.283Z,57.33
2018-11-27T15:39:47.479Z,51.50
2018-11-27T15:42:15.647Z,51.47
2018-11-27T15:44:43.809Z,65.80
2018-11-27T15:47:12.030Z,59.67
2018-11-27T15:49:40.181Z,57.97
2018-11-27T15:52:08.335Z,50.33
2018-11-27T15:54:36.573Z,56.27
2018-11-27T15:57:04.715Z,52.03
2018-11-27T15:59:32.876Z,41.10
2018-11-27T16:02:01.191Z,53.20
2018-11-27T16:04:29.379Z,53.00
2018-11-27T16:06:57.572Z,57.40
2018-11-27T16:09:25.791Z,60.23
2018-11-27T16:11:53.995Z,62.33
2018-11-27T16:14:22.129Z,59.57
2018-11-27T16:16:50.326Z,61.17
2018-11-27T16:19:18.480Z,62.63
2018-11-27T16:21:46.641Z,57.53
2018-11-27T16:24:14.872Z,60.60
2018-11-27T16:26:43.033Z,68.60
2018-11-27T16:29:11.243Z,60.43
2018-11-27T16:31:39.390Z,66.50
2018-11-27T16:34:07.567Z,62.80
2018-11-27T16:36:35.719Z,60.10
2018-11-27T16:39:06.874Z,67.03
2018-11-27T16:41:35.034Z,63.17
2018-11-27T16:44:03.220Z,63.37
2018-11-27T16:46:31.447Z,62.13
2018-11-27T16:48:59.745Z,63.77
2018-11-27T16:51:28.056Z,61.07
2018-11-27T16:53:56.216Z,61.03
2018-11-27T16:56:24.431Z,69.57
2018-11-27T16:58:52.643Z,65.00
2018-11-27T17:01:20.842Z,61.07
2018-11-27T17:03:49.009Z,62.30
2018-11-27T17:06:17.236Z,64.53
2018-11-27T17:08:45.392Z,59.40
2018-11-27T17:11:13.592Z,63.37
2018-11-27T17:13:41.764Z,58.63
2018-11-27T17:16:09.956Z,63.43
2018-11-27T17:18:38.131Z,72.27
2018-11-27T17:21:06.351Z,67.97
2018-11-27T17:23:34.496Z,62.93
2018-11-27T17:26:04.117Z,68.03
2018-11-27T17:28:31.365Z,70.13
2018-11-27T17:31:09.135Z,71.13
2018-11-27T17:33:39.921Z,66.67
2018-11-27T17:36:09.072Z,62.10
2018-11-27T17:38:37.731Z,65.53
2018-11-27T17:41:06.508Z,68.83
2018-11-27T17:43:34.786Z,63.47
2018-11-27T17:46:03.000Z,69.20
2018-11-27T17:48:31.243Z,73.73
2018-11-27T17:50:59.469Z,70.27
2018-11-27T17:53:27.661Z,72.67
2018-11-27T17:55:55.826Z,70.67
2018-11-27T17:58:24.031Z,68.17
2018-11-27T18:00:52.242Z,77.67
2018-11-27T18:03:20.400Z,72.57
2018-11-27T18:05:48.687Z,72.23
2018-11-27T18:08:16.849Z,70.97
2018-11-27T18:10:45.033Z,76.10
2018-11-27T18:13:13.254Z,77.47
2018-11-27T18:15:41.443Z,69.00
2018-11-27T18:18:10.023Z,67.10
2018-11-27T18:20:38.567Z,70.70
2018-11-27T18:23:07.073Z,69.93
2018-11-27T18:25:35.450Z,69.90
2018-11-27T18:28:03.847Z,78.10
2018-11-27T18:30:32.312Z,77.63
2018-11-27T18:33:00.764Z,70.17
2018-11-27T18:35:29.275Z,70.23
2018-11-27T18:37:57.641Z,66.37
2018-11-27T18:40:25.973Z,75.00
2018-11-27T18:42:54.485Z,67.87
2018-11-27T18:45:27.102Z,66.33
2018-11-27T18:47:55.576Z,68.70
2018-11-27T18:50:25.979Z,77.23
2018-11-27T18:52:54.356Z,76.33
2018-11-27T18:55:22.773Z,74.00
2018-11-27T18:57:51.107Z,78.20
2018-11-27T19:00:24.117Z,70.37
2018-11-27T19:02:52.698Z,73.87
2018-11-27T19:05:21.822Z,80.80
2018-11-27T19:07:50.092Z,77.33
2018-11-27T19:10:25.387Z,79.20
2018-11-27T19:12:53.724Z,71.00
2018-11-27T19:15:29.220Z,69.13
2018-11-27T19:18:00.045Z,77.17
2018-11-27T19:20:28.439Z,77.27
2018-11-27T19:22:56.601Z,71.97
2018-11-27T19:25:24.889Z,75.93
2018-11-27T19:27:53.103Z,75.37
2018-11-27T19:30:22.043Z,83.37
2018-11-27T19:32:50.294Z,86.73
2018-11-27T19:35:25.020Z,87.63
2018-11-27T19:37:48.512Z,79.13
2018-11-27T19:40:18.380Z,75.60
2018-11-27T19:42:46.568Z,73.20
2018-11-27T19:45:21.067Z,78.90
2018-11-27T19:47:49.371Z,69.87
2018-11-27T19:50:17.592Z,83.97
2018-11-27T19:52:46.732Z,75.03
2018-11-27T19:55:15.886Z,83.93
2018-11-27T19:57:44.094Z,79.53
2018-11-27T20:00:16.669Z,85.30
2018-11-27T20:02:45.817Z,83.80
2018-11-27T20:08:08.023Z,89.20
2018-11-27T20:10:36.717Z,76.97
2018-11-27T20:13:05.208Z,87.23
2018-11-27T20:15:33.436Z,80.37
2018-11-27T20:18:01.957Z,80.57
2018-11-27T20:20:36.859Z,86.40
2018-11-27T20:23:21.404Z,79.10
2018-11-27T20:25:56.321Z,79.13
2018-11-27T20:28:25.541Z,74.07
2018-11-27T20:30:53.817Z,85.80
2018-11-27T20:33:22.100Z,86.73
2018-11-27T20:35:56.684Z,82.10
2018-11-27T20:38:25.309Z,89.57
2018-11-27T20:40:54.283Z,84.33
2018-11-27T20:43:22.508Z,92.23
2018-11-27T20:45:50.742Z,83.47
2018-11-27T20:48:22.779Z,86.60
2018-11-27T20:50:52.338Z,86.17
2018-11-27T20:53:22.664Z,90.00
2018-11-27T20:55:51.545Z,85.80
2018-11-27T20:58:21.590Z,91.60
2018-11-27T21:00:51.155Z,95.83
2018-11-27T21:03:19.373Z,96.63
2018-11-27T21:05:47.610Z,92.33
2018-11-27T21:08:19.013Z,94.13
2018-11-27T21:10:47.298Z,93.33
2018-11-27T21:13:15.515Z,94.77
2018-11-27T21:15:44.165Z,92.73
2018-11-27T21:18:12.777Z,103.97
2018-11-27T21:20:42.589Z,100.50
2018-11-27T21:23:10.775Z,95.87
2018-11-27T21:25:40.909Z,97.57
2018-11-27T21:28:15.739Z,90.23
2018-11-27T21:30:55.738Z,97.90
2018-11-27T21:33:28.220Z,88.70
2018-11-27T21:35:59.567Z,92.30
2018-11-27T21:41:30.240Z,88.80
2018-11-27T21:44:38.057Z,98.50
2018-11-27T21:47:29.622Z,88.03
2018-11-27T21:49:57.943Z,97.03
2018-11-27T21:52:26.300Z,88.37
2018-11-27T21:54:54.448Z,90.33
2018-11-27T21:57:22.671Z,89.63
2018-11-27T21:59:50.885Z,90.37
